Time;durP1;ratioP1;P1;durP2;ratioP2;P2;SDS_P1;SDS_P2;PMS_P1;PMS_P2;Temp;Humidity;BMP_temperature;BMP_pressure;BME280_temperature;BME280_humidity;BME280_pressure;Samples;Min_cycle;Max_cycle;Signal;HPM_P1;HPM_P2
2023/05/20 00:00:26;;;;;;;17.33;10.70;;;;;;;13.23;85.03;99739.59;4890212;29;20476;-91
2023/05/20 00:02:51;;;;;;;15.98;9.50;;;;;;;13.10;84.99;99726.69;4906110;29;20063;-91
2023/05/20 00:05:17;;;;;;;17.88;9.45;;;;;;;12.92;85.54;99725.38;4905514;29;20478;-91
2023/05/20 00:07:42;;;;;;;23.75;10.63;;;;;;;12.90;85.32;99720.25;4905391;29;20055;-90
2023/05/20 00:10:08;;;;;;;19.15;11.35;;;;;;;12.86;86.50;99737.28;4889792;29;20027;-91
2023/05/20 00:12:36;;;;;;;19.63;11.40;;;;;;;12.69;86.97;99724.09;4905430;29;20031;-90
2023/05/20 00:15:02;;;;;;;20.30;10.57;;;;;;;12.71;86.68;99719.22;4890698;29;20560;-90
2023/05/20 00:17:28;;;;;;;19.60;10.60;;;;;;;12.87;86.50;99717.31;4889315;29;20027;-90
2023/05/20 00:19:53;;;;;;;18.92;11.40;;;;;;;12.79;86.82;99715.97;4905581;29;20039;-91
2023/05/20 00:22:19;;;;;;;20.88;10.48;;;;;;;12.79;86.65;99725.97;4905067;29;20024;-91
2023/05/20 00:24:44;;;;;;;16.52;9.98;;;;;;;12.83;86.11;99716.25;4889854;29;20122;-91
2023/05/20 00:27:10;;;;;;;16.38;10.18;;;;;;;12.88;85.27;99706.19;4905692;29;20054;-91
2023/05/20 00:29:35;;;;;;;17.67;10.32;;;;;;;13.03;84.61;99718.88;4890164;29;20056;-91
2023/05/20 00:32:01;;;;;;;20.05;11.65;;;;;;;12.96;85.10;99712.94;4890044;29;20032;-89
2023/05/20 00:34:26;;;;;;;20.48;10.45;;;;;;;12.98;85.16;99709.97;4890483;29;20466;-89
2023/05/20 00:36:52;;;;;;;20.35;11.52;;;;;;;12.87;85.16;99698.41;4889690;29;20398;-89
2023/05/20 00:39:18;;;;;;;29.20;11.43;;;;;;;12.73;85.78;99698.97;4890042;29;20379;-89
2023/05/20 00:41:43;;;;;;;18.48;10.82;;;;;;;12.90;85.38;99722.16;4889961;29;20028;-89
2023/05/20 00:44:09;;;;;;;17.80;10.50;;;;;;;12.79;84.70;99693.56;4888787;29;20106;-89
2023/05/20 00:46:34;;;;;;;19.10;10.93;;;;;;;12.83;84.74;99706.22;4889985;29;20557;-90
2023/05/20 00:49:00;;;;;;;18.00;10.55;;;;;;;12.98;84.59;99710.78;4905336;29;20505;-89
2023/05/20 00:51:25;;;;;;;19.50;11.80;;;;;;;13.00;84.83;99716.72;4890221;29;20024;-89
2023/05/20 00:53:51;;;;;;;19.17;11.18;;;;;;;13.12;84.59;99716.41;4889473;29;20478;-89
2023/05/20 00:56:16;;;;;;;22.65;11.88;;;;;;;13.25;84.02;99723.09;4905464;29;20383;-89
2023/05/20 00:58:42;;;;;;;32.85;15.05;;;;;;;13.26;84.28;99709.31;4905255;29;20461;-89
2023/05/20 01:01:08;;;;;;;23.42;10.85;;;;;;;13.27;83.86;99705.50;4921312;29;20056;-89
2023/05/20 01:03:35;;;;;;;19.77;10.38;;;;;;;13.16;84.05;99709.34;4889778;29;20027;-89
2023/05/20 01:06:01;;;;;;;28.83;11.40;;;;;;;13.17;84.30;99707.47;4889964;29;20027;-90
2023/05/20 01:08:27;;;;;;;13.95;8.57;;;;;;;13.18;84.09;99709.91;4905559;29;20035;-90
2023/05/20 01:11:26;;;;;;;12.50;8.50;;;;;;;13.36;82.05;99715.78;4905504;29;20024;-91
2023/05/20 01:13:57;;;;;;;10.85;6.50;;;;;;;13.29;81.29;99707.97;4899899;29;20032;-91
2023/05/20 01:16:23;;;;;;;13.63;7.50;;;;;;;13.23;81.09;99701.75;4905097;29;20031;-91
2023/05/20 01:18:49;;;;;;;18.75;12.98;;;;;;;13.21;81.20;99692.31;4904234;29;20024;-90
2023/05/20 01:21:15;;;;;;;14.48;7.07;;;;;;;13.27;81.03;99710.13;4904908;29;20434;-90
2023/05/20 01:23:41;;;;;;;11.00;6.72;;;;;;;13.07;80.95;99689.38;4905198;29;20049;-90
2023/05/20 01:26:06;;;;;;;9.57;6.32;;;;;;;13.13;80.78;99701.78;4920407;29;20103;-90
2023/05/20 01:28:33;;;;;;;16.23;8.05;;;;;;;12.83;82.63;99697.31;4904172;29;20048;-90
2023/05/20 01:31:00;;;;;;;16.27;7.07;;;;;;;12.82;83.57;99712.72;4920300;29;20214;-90
2023/05/20 01:33:26;;;;;;;13.90;7.32;;;;;;;12.76;83.53;99710.31;4905834;29;20119;-90
2023/05/20 01:35:52;;;;;;;11.25;7.25;;;;;;;12.53;84.43;99701.69;4904747;29;20474;-90
2023/05/20 01:38:18;;;;;;;9.70;7.05;;;;;;;12.49;84.47;99711.44;4919724;29;20039;-91
2023/05/20 01:40:43;;;;;;;14.88;7.93;;;;;;;12.34;84.96;99698.75;4889013;29;20035;-90
2023/05/20 01:43:09;;;;;;;9.13;6.75;;;;;;;12.25;85.66;99684.22;4904519;29;20028;-90
2023/05/20 01:45:38;;;;;;;14.57;8.82;;;;;;;12.43;85.67;99705.25;4919681;29;20528;-90
2023/05/20 01:48:05;;;;;;;12.32;7.82;;;;;;;12.25;85.72;99676.09;4920228;29;20044;-91
2023/05/20 01:53:53;;;;;;;14.73;7.50;;;;;;;12.36;84.83;99676.91;4936635;29;20039;-90
2023/05/20 01:56:20;;;;;;;13.48;7.07;;;;;;;12.30;85.59;99686.88;4904237;29;20426;-90
2023/05/20 01:58:46;;;;;;;14.32;7.85;;;;;;;12.29;85.59;99683.38;4889096;29;20054;-91
2023/05/20 02:01:13;;;;;;;13.20;8.00;;;;;;;12.23;85.37;99679.06;4919264;29;20040;-90
2023/05/20 02:03:41;;;;;;;11.35;7.60;;;;;;;12.44;85.05;99695.25;4919782;29;20517;-90
2023/05/20 02:06:06;;;;;;;11.98;7.20;;;;;;;12.28;84.87;99675.56;4920415;29;20039;-90
2023/05/20 02:08:32;;;;;;;12.55;8.43;;;;;;;12.13;85.80;99681.78;4888285;29;20514;-91
2023/05/20 02:10:58;;;;;;;11.45;7.68;;;;;;;12.37;85.74;99713.59;4919934;29;20421;-90
2023/05/20 02:13:24;;;;;;;12.07;8.75;;;;;;;12.23;85.41;99681.78;4903261;29;20035;-90
2023/05/20 02:15:52;;;;;;;13.50;8.02;;;;;;;12.08;85.83;99679.09;4888383;29;20067;-90
2023/05/20 02:18:18;;;;;;;14.73;8.77;;;;;;;12.13;85.97;99682.59;4919699;29;20050;-90
2023/05/20 02:20:45;;;;;;;13.27;7.88;;;;;;;12.11;86.26;99687.44;4903572;29;20031;-91
2023/05/20 02:23:11;;;;;;;13.63;8.18;;;;;;;12.23;86.16;99689.88;4919080;29;20019;-90
2023/05/20 02:25:39;;;;;;;15.32;8.40;;;;;;;12.13;86.25;99687.97;4919199;29;20107;-90
2023/05/20 02:28:09;;;;;;;15.13;8.75;;;;;;;11.87;86.45;99665.56;4888230;29;20038;-90
2023/05/20 02:30:36;;;;;;;10.77;8.07;;;;;;;11.76;87.13;99666.63;4904402;29;20537;-90
2023/05/20 02:33:03;;;;;;;13.38;8.45;;;;;;;11.79;87.38;99684.19;4919487;29;20409;-90
2023/05/20 02:35:28;;;;;;;12.52;8.88;;;;;;;11.69;87.83;99683.09;4903443;29;20031;-90
2023/05/20 02:37:56;;;;;;;17.60;8.75;;;;;;;11.77;87.67;99695.25;4919848;29;20038;-90
2023/05/20 02:40:23;;;;;;;12.43;9.18;;;;;;;11.56;87.74;99672.84;4903709;29;20119;-90
2023/05/20 02:42:48;;;;;;;13.88;8.98;;;;;;;11.60;88.08;99676.63;4936746;29;20024;-90
2023/05/20 02:45:15;;;;;;;12.98;8.80;;;;;;;11.71;87.73;99693.63;4888118;29;20086;-91
2023/05/20 02:47:42;;;;;;;14.10;9.50;;;;;;;11.68;88.22;99692.28;4888008;29;20059;-90
2023/05/20 02:50:09;;;;;;;13.32;8.57;;;;;;;11.62;87.81;99695.19;4903538;29;20111;-90
2023/05/20 02:52:35;;;;;;;16.48;9.43;;;;;;;11.56;88.19;99696.28;4903406;29;20050;-90
2023/05/20 02:55:01;;;;;;;17.88;9.88;;;;;;;11.55;87.74;99683.88;4903370;29;20055;-90
2023/05/20 02:57:28;;;;;;;16.23;8.93;;;;;;;11.75;87.33;99713.59;4920174;29;20028;-90
2023/05/20 02:59:55;;;;;;;11.98;8.10;;;;;;;11.62;87.58;99692.50;4935932;29;20062;-91
2023/05/20 03:02:22;;;;;;;15.35;8.27;;;;;;;11.78;87.66;99720.31;4904342;29;20132;-90
2023/05/20 03:04:49;;;;;;;13.07;8.95;;;;;;;11.73;87.44;99721.94;4903620;29;20024;-90
2023/05/20 03:07:18;;;;;;;13.60;9.77;;;;;;;11.78;87.28;99715.72;4904454;29;20035;-91
2023/05/20 03:09:44;;;;;;;11.93;9.15;;;;;;;11.88;86.70;99709.53;4889470;29;20094;-90
2023/05/20 03:12:11;;;;;;;14.82;8.88;;;;;;;11.93;86.00;99702.31;4919538;29;20119;-90
2023/05/20 03:14:37;;;;;;;15.32;8.77;;;;;;;11.98;85.94;99714.19;4919067;29;20024;-90
2023/05/20 03:17:04;;;;;;;15.23;8.85;;;;;;;11.92;85.54;99687.19;4919881;29;20055;-90
2023/05/20 03:19:30;;;;;;;21.40;9.27;;;;;;;12.03;85.21;99703.38;4936970;29;20469;-90
2023/05/20 03:21:59;;;;;;;11.80;7.95;;;;;;;11.99;85.55;99713.88;4934837;29;20032;-91
2023/05/20 03:24:25;;;;;;;16.33;9.43;;;;;;;11.87;86.21;99719.53;4919321;29;20051;-90
2023/05/20 03:26:50;;;;;;;16.10;9.45;;;;;;;11.66;86.44;99716.00;4904306;29;20027;-90
2023/05/20 03:29:16;;;;;;;14.95;9.05;;;;;;;11.83;86.69;99726.53;4903740;29;20099;-90
2023/05/20 03:31:42;;;;;;;15.80;8.98;;;;;;;11.92;86.15;99719.56;4888178;29;20039;-90
2023/05/20 03:34:08;;;;;;;11.85;8.70;;;;;;;11.93;85.94;99706.88;4903642;29;20028;-90
2023/05/20 03:36:35;;;;;;;13.88;9.00;;;;;;;11.97;85.79;99712.53;4903273;29;20030;-90
2023/05/20 03:39:03;;;;;;;13.85;9.13;;;;;;;12.00;85.79;99710.13;4919306;29;20535;-90
2023/05/20 03:41:28;;;;;;;16.92;10.13;;;;;;;12.00;85.68;99720.91;4904441;29;20027;-90
2023/05/20 03:43:54;;;;;;;13.35;9.48;;;;;;;12.03;86.08;99731.16;4888516;29;20020;-90
2023/05/20 03:46:20;;;;;;;14.43;8.93;;;;;;;11.83;86.11;99725.72;4905975;29;20050;-91
2023/05/20 03:48:46;;;;;;;18.33;9.60;;;;;;;11.65;86.17;99702.78;4902752;29;20508;-91
2023/05/20 03:51:13;;;;;;;17.63;9.38;;;;;;;11.66;86.98;99716.00;4936120;29;20426;-91
2023/05/20 03:53:38;;;;;;;22.90;11.48;;;;;;;11.76;86.45;99717.88;4903763;29;20106;-90
2023/05/20 03:56:04;;;;;;;21.50;9.98;;;;;;;11.73;86.39;99696.84;4902607;29;20027;-90
2023/05/20 03:58:30;;;;;;;17.48;10.07;;;;;;;11.90;86.24;99721.72;4934520;29;20027;-90
2023/05/20 04:00:57;;;;;;;17.83;10.35;;;;;;;11.95;86.53;99733.59;4935570;29;20371;-91
2023/05/20 04:03:23;;;;;;;13.02;9.50;;;;;;;11.69;86.45;99715.47;4902538;29;20478;-91
2023/05/20 04:05:50;;;;;;;19.08;9.25;;;;;;;11.78;86.01;99733.81;4919388;29;20031;-91
2023/05/20 04:08:18;;;;;;;16.55;9.25;;;;;;;11.72;85.93;99724.91;4919313;29;20487;-90
2023/05/20 04:10:43;;;;;;;15.98;8.90;;;;;;;11.67;85.82;99719.50;4903670;29;20040;-91
2023/05/20 04:13:11;;;;;;;12.20;8.90;;;;;;;11.78;86.24;99731.91;4918660;29;20562;-90
2023/05/20 04:15:37;;;;;;;12.80;8.73;;;;;;;11.92;86.03;99741.16;4903591;29;20536;-90
2023/05/20 04:18:06;;;;;;;12.85;8.45;;;;;;;11.85;86.38;99734.34;4921237;29;20027;-91
2023/05/20 04:20:31;;;;;;;12.02;8.27;;;;;;;11.88;86.50;99742.75;4907486;29;20061;-91
2023/05/20 04:22:57;;;;;;;15.90;8.20;;;;;;;12.02;86.14;99734.16;4923061;29;20028;-90
2023/05/20 04:25:22;;;;;;;16.73;8.98;;;;;;;12.09;85.74;99729.28;4921240;29;20047;-90
2023/05/20 04:27:48;;;;;;;20.67;9.23;;;;;;;12.22;85.36;99723.38;4921891;29;20406;-90
2023/05/20 04:30:16;;;;;;;17.27;9.85;;;;;;;12.23;85.07;99710.66;4906323;29;20044;-90
2023/05/20 04:32:43;;;;;;;24.05;9.32;;;;;;;12.32;85.22;99731.44;4914056;29;20030;-90
2023/05/20 04:35:10;;;;;;;16.20;8.75;;;;;;;12.17;85.05;99711.75;4931992;29;20090;-90
2023/05/20 04:37:37;;;;;;;14.40;9.57;;;;;;;12.23;85.60;99722.28;4939232;29;20027;-90
2023/05/20 04:40:05;;;;;;;14.90;10.32;;;;;;;12.07;85.92;99726.84;4895290;29;20023;-90
2023/05/20 04:42:36;;;;;;;21.17;11.68;;;;;;;11.89;86.36;99714.72;4906589;29;20126;-90
2023/05/20 04:45:04;;;;;;;20.50;11.73;;;;;;;12.18;86.26;99741.19;4921772;29;20107;-90
2023/05/20 04:47:37;;;;;;;22.27;12.43;;;;;;;12.26;85.76;99729.00;4938768;29;20521;-90
2023/05/20 04:50:02;;;;;;;;;;;;;;;12.43;84.77;99753.03;4908360;29;20065;-90
2023/05/20 04:52:29;;;;;;;15.10;10.35;;;;;;;12.56;83.71;99733.59;4922002;29;19910;-91
2023/05/20 04:54:57;;;;;;;15.55;10.10;;;;;;;12.69;82.79;99730.31;4890982;29;20478;-90
2023/05/20 04:57:24;;;;;;;14.20;9.60;;;;;;;12.92;81.38;99731.59;4922007;29;20541;-90
2023/05/20 04:59:52;;;;;;;18.67;9.85;;;;;;;13.15;81.92;99751.00;4922036;29;20043;-90
2023/05/20 05:02:20;;;;;;;18.27;9.50;;;;;;;13.14;81.87;99752.09;4939280;29;20178;-90
2023/05/20 05:04:48;;;;;;;20.13;9.60;;;;;;;13.23;81.84;99741.50;4923491;29;20111;-90
2023/05/20 05:07:15;;;;;;;17.08;10.30;;;;;;;13.34;82.47;99746.63;4906120;29;20031;-90
2023/05/20 05:09:43;;;;;;;20.15;10.02;;;;;;;13.28;83.28;99730.66;4906261;29;20516;-90
2023/05/20 05:12:10;;;;;;;14.07;9.48;;;;;;;13.27;81.79;99739.88;4921477;29;20095;-91
2023/05/20 05:14:42;;;;;;;16.77;10.18;;;;;;;13.22;81.85;99734.47;4921731;29;20055;-91
2023/05/20 05:17:09;;;;;;;15.60;9.85;;;;;;;13.27;82.35;99745.28;4905200;29;20046;-90
2023/05/20 05:19:35;;;;;;;13.63;9.63;;;;;;;13.33;83.10;99763.94;4921981;29;20090;-89
2023/05/20 05:22:02;;;;;;;14.57;9.23;;;;;;;13.29;82.82;99748.53;4936939;29;20032;-90
2023/05/20 05:24:29;;;;;;;18.38;9.48;;;;;;;13.32;81.97;99740.69;4890520;29;20028;-90
2023/05/20 05:26:55;;;;;;;14.25;10.45;;;;;;;13.60;81.39;99754.59;4905922;29;20035;-90
2023/05/20 05:29:21;;;;;;;11.52;8.70;;;;;;;13.66;81.06;99745.38;4920308;29;20055;-89
2023/05/20 05:31:47;;;;;;;17.55;9.45;;;;;;;13.59;80.00;99736.75;4936827;29;20039;-89
2023/05/20 05:34:13;;;;;;;16.45;9.90;;;;;;;13.83;79.71;99739.59;4905794;29;20031;-91
2023/05/20 05:36:40;;;;;;;16.63;10.50;;;;;;;13.96;79.20;99721.91;4921171;29;20034;-89
2023/05/20 05:39:07;;;;;;;18.05;10.15;;;;;;;14.25;78.60;99732.75;4904804;29;20514;-90
2023/05/20 05:41:33;;;;;;;12.75;9.15;;;;;;;14.43;78.74;99735.88;4937651;29;20028;-90
2023/05/20 05:43:59;;;;;;;17.17;10.20;;;;;;;14.45;77.69;99706.59;4905556;29;20034;-91
2023/05/20 05:46:24;;;;;;;15.55;8.93;;;;;;;14.65;78.04;99722.69;4905008;29;20050;-91
2023/05/20 05:48:50;;;;;;;19.67;10.60;;;;;;;14.62;77.66;99736.81;4904917;29;20180;-91
2023/05/20 05:51:15;;;;;;;19.05;9.65;;;;;;;14.82;76.58;99757.47;4905202;29;20398;-89
2023/05/20 05:53:41;;;;;;;18.00;9.88;;;;;;;14.89;75.81;99728.09;4905386;29;20175;-89
2023/05/20 05:56:08;;;;;;;17.85;10.40;;;;;;;15.03;76.32;99739.09;4905188;29;20462;-89
2023/05/20 05:58:33;;;;;;;16.27;10.32;;;;;;;15.25;75.27;99748.56;4904386;29;20079;-90
2023/05/20 06:00:59;;;;;;;16.55;10.15;;;;;;;15.27;74.67;99743.66;4905076;29;20032;-89
2023/05/20 06:03:24;;;;;;;19.88;10.10;;;;;;;15.30;76.06;99748.53;4922276;29;20023;-89
2023/05/20 06:05:50;;;;;;;15.60;10.73;;;;;;;15.38;75.41;99756.03;4889446;29;20038;-90
2023/05/20 06:08:15;;;;;;;18.48;10.75;;;;;;;15.40;75.62;99751.13;4888847;29;20074;-91
2023/05/20 06:10:41;;;;;;;17.95;10.48;;;;;;;15.68;73.97;99762.94;4888559;29;20053;-90
2023/05/20 06:13:06;;;;;;;15.63;9.88;;;;;;;15.78;73.86;99756.59;4904719;29;20047;-89
2023/05/20 06:15:32;;;;;;;14.95;10.20;;;;;;;15.95;73.27;99764.22;4889270;29;20521;-90
2023/05/20 06:17:58;;;;;;;16.85;10.18;;;;;;;16.21;73.10;99751.06;4936698;29;20027;-90
2023/05/20 06:20:27;;;;;;;15.70;10.57;;;;;;;16.50;71.99;99774.50;4904620;29;20039;-91
2023/05/20 06:22:53;;;;;;;24.27;13.50;;;;;;;16.26;74.15;99748.25;4904832;29;20038;-89
2023/05/20 06:25:18;;;;;;;22.60;14.25;;;;;;;16.51;73.41;99754.38;4888629;29;20395;-90
2023/05/20 06:27:44;;;;;;;22.45;13.52;;;;;;;16.75;72.20;99735.97;4888559;29;20031;-90
2023/05/20 06:30:10;;;;;;;19.20;12.60;;;;;;;16.77;73.15;99739.22;4888453;29;20054;-91
2023/05/20 06:32:36;;;;;;;14.23;10.85;;;;;;;17.14;72.44;99767.38;4888313;29;20355;-91
2023/05/20 06:35:01;;;;;;;8.80;6.50;;;;;;;17.34;68.83;99757.19;4919636;29;20055;-90
2023/05/20 06:37:27;;;;;;;15.05;9.32;;;;;;;17.32;70.69;99734.91;4888924;29;20023;-90
2023/05/20 06:39:53;;;;;;;19.42;11.77;;;;;;;17.42;70.76;99756.47;4903654;29;20024;-87
2023/05/20 06:42:20;;;;;;;14.13;7.05;;;;;;;17.26;67.94;99747.78;4936544;29;20031;-91
2023/05/20 06:44:46;;;;;;;7.90;5.90;;;;;;;17.38;66.86;99766.34;4904212;29;20031;-91
2023/05/20 06:47:13;;;;;;;8.40;5.10;;;;;;;17.35;66.42;99750.63;4904377;29;20020;-91
2023/05/20 06:49:39;;;;;;;6.65;5.35;;;;;;;17.52;65.25;99750.81;4888244;29;20023;-91
2023/05/20 06:52:06;;;;;;;8.23;5.35;;;;;;;17.71;64.81;99752.56;4905066;29;20019;-90
2023/05/20 06:54:34;;;;;;;7.38;5.28;;;;;;;17.72;64.92;99737.84;4905056;29;20030;-90
2023/05/20 06:57:00;;;;;;;13.73;6.00;;;;;;;17.67;65.44;99744.22;4889359;29;20062;-90
2023/05/20 06:59:25;;;;;;;7.78;5.07;;;;;;;17.80;65.28;99748.00;4888978;29;20019;-90
2023/05/20 07:01:51;;;;;;;8.55;6.05;;;;;;;17.71;65.55;99731.59;4889331;29;20043;-90
2023/05/20 07:04:19;;;;;;;7.90;5.72;;;;;;;17.87;65.40;99742.97;4889193;29;20092;-90
2023/05/20 07:06:44;;;;;;;11.70;6.82;;;;;;;17.87;67.27;99742.19;4937573;29;20028;-90
2023/05/20 07:09:11;;;;;;;11.55;7.40;;;;;;;17.89;67.41;99746.19;4904350;29;20039;-90
2023/05/20 07:11:38;;;;;;;11.00;6.38;;;;;;;18.14;66.16;99744.00;4904801;29;20521;-91
2023/05/20 07:14:04;;;;;;;6.93;5.10;;;;;;;18.04;64.62;99741.50;4905062;29;20024;-90
2023/05/20 07:16:31;;;;;;;9.02;5.55;;;;;;;18.09;64.19;99744.09;4920694;29;20072;-91
2023/05/20 07:18:56;;;;;;;11.10;5.50;;;;;;;18.08;63.76;99747.94;4905049;29;20389;-89
2023/05/20 07:21:22;;;;;;;9.05;5.63;;;;;;;17.81;63.84;99727.03;4890059;29;20024;-90
2023/05/20 07:23:49;;;;;;;9.38;5.80;;;;;;;18.05;64.03;99745.81;4921433;29;20039;-90
2023/05/20 07:26:17;;;;;;;16.13;5.72;;;;;;;18.01;63.73;99728.50;4904767;29;20390;-90
2023/05/20 07:28:44;;;;;;;10.77;5.80;;;;;;;18.00;63.85;99722.25;4905159;29;20426;-90
2023/05/20 07:31:10;;;;;;;7.28;6.05;;;;;;;18.21;64.03;99738.91;4905676;29;20027;-90
2023/05/20 07:33:38;;;;;;;8.48;5.82;;;;;;;18.18;62.63;99737.59;4921026;29;20032;-91
2023/05/20 07:36:04;;;;;;;12.63;6.13;;;;;;;18.25;62.76;99747.28;4920320;29;20035;-90
2023/05/20 07:38:31;;;;;;;7.40;5.50;;;;;;;18.37;62.30;99729.22;4921095;29;20039;-92
2023/05/20 07:40:57;;;;;;;6.65;5.07;;;;;;;18.50;62.12;99746.63;4888987;29;20035;-91
2023/05/20 07:43:23;;;;;;;8.57;5.75;;;;;;;18.59;61.90;99738.47;4920739;29;20032;-89
2023/05/20 07:45:49;;;;;;;12.13;5.55;;;;;;;18.80;61.65;99743.41;4904677;29;20043;-89
2023/05/20 07:48:18;;;;;;;8.23;5.70;;;;;;;18.85;60.31;99735.91;4904559;29;20034;-94
2023/05/20 07:50:44;;;;;;;9.70;5.63;;;;;;;18.94;59.26;99746.84;4888702;29;20516;-94
2023/05/20 07:53:10;;;;;;;7.90;5.95;;;;;;;19.18;59.11;99747.28;4906618;29;20035;-90
2023/05/20 07:55:40;;;;;;;8.48;5.82;;;;;;;19.25;58.19;99746.78;4907717;29;20040;-90
2023/05/20 07:58:07;;;;;;;10.48;5.40;;;;;;;19.31;56.96;99742.00;4924556;29;20079;-89
2023/05/20 08:00:36;;;;;;;8.02;5.53;;;;;;;19.58;56.78;99744.44;4907493;29;20032;-91
2023/05/20 08:03:06;;;;;;;9.93;6.53;;;;;;;19.72;54.81;99744.34;4923166;29;20028;-91
2023/05/20 08:05:36;;;;;;;9.38;4.93;;;;;;;19.90;54.71;99736.13;4892776;29;20035;-90
2023/05/20 08:08:04;;;;;;;10.15;5.40;;;;;;;20.12;55.58;99757.03;4920447;29;20040;-91
2023/05/20 08:10:34;;;;;;;8.98;5.00;;;;;;;20.12;55.40;99735.19;4923977;29;20451;-91
2023/05/20 08:12:59;;;;;;;10.23;5.50;;;;;;;20.18;54.61;99723.75;4907809;29;20031;-90
2023/05/20 08:15:25;;;;;;;8.85;5.40;;;;;;;20.18;54.14;99734.69;4906960;29;20028;-90
2023/05/20 08:17:51;;;;;;;8.43;5.43;;;;;;;20.09;53.95;99733.91;4907355;29;20032;-90
2023/05/20 08:20:17;;;;;;;8.45;5.50;;;;;;;20.27;54.02;99750.28;4892163;29;20035;-91
2023/05/20 08:22:43;;;;;;;9.85;5.50;;;;;;;20.14;54.02;99743.84;4891070;29;20118;-91
2023/05/20 08:25:09;;;;;;;7.82;5.80;;;;;;;20.02;54.22;99728.09;4909624;29;20050;-90
2023/05/20 08:27:37;;;;;;;7.00;5.40;;;;;;;20.15;54.96;99745.44;4891654;29;20542;-89
2023/05/20 08:30:04;;;;;;;7.05;5.18;;;;;;;20.20;55.46;99739.84;4908270;29;20119;-90
2023/05/20 08:32:30;;;;;;;10.05;5.00;;;;;;;20.31;54.29;99740.28;4906624;29;20438;-90
2023/05/20 08:35:00;;;;;;;7.25;5.40;;;;;;;20.25;54.20;99741.59;4893400;29;20090;-91
2023/05/20 08:37:28;;;;;;;11.43;5.10;;;;;;;19.97;54.58;99723.59;4894393;29;20027;-90
2023/05/20 08:39:54;;;;;;;10.50;5.80;;;;;;;20.00;55.04;99722.16;4907609;29;20035;-91
2023/05/20 08:42:23;;;;;;;12.20;7.28;;;;;;;20.00;54.77;99727.63;4892745;29;20110;-91
2023/05/20 08:44:52;;;;;;;14.77;6.60;;;;;;;19.83;56.15;99731.16;4906335;29;20487;-90
2023/05/20 08:47:21;;;;;;;7.97;4.97;;;;;;;19.75;56.04;99718.31;4892926;29;20028;-91
2023/05/20 08:49:48;;;;;;;6.05;4.38;;;;;;;19.62;55.82;99711.06;4907079;29;20106;-91
2023/05/20 08:52:15;;;;;;;9.88;5.22;;;;;;;19.83;55.73;99722.16;4940607;29;20024;-91
2023/05/20 08:54:45;;;;;;;9.27;5.18;;;;;;;19.83;56.33;99717.50;4906546;29;20533;-91
2023/05/20 08:57:12;;;;;;;7.30;5.00;;;;;;;19.98;56.38;99733.44;4891652;29;20027;-90
2023/05/20 08:59:47;;;;;;;7.22;4.47;;;;;;;20.09;54.40;99714.75;4892829;29;20561;-96
2023/05/20 09:02:13;;;;;;;7.20;4.97;;;;;;;20.18;54.41;99731.16;4891872;29;20486;-90
2023/05/20 09:04:39;;;;;;;9.50;5.60;;;;;;;19.91;54.63;99705.75;4890678;29;20034;-91
2023/05/20 09:07:04;;;;;;;6.82;4.75;;;;;;;20.00;53.47;99733.09;4906807;29;20473;-91
2023/05/20 09:09:32;;;;;;;7.72;4.63;;;;;;;19.91;53.21;99735.03;4891109;29;20110;-91
2023/05/20 09:12:01;;;;;;;8.38;4.53;;;;;;;19.79;53.40;99739.19;4906819;29;20063;-90
2023/05/20 09:14:30;;;;;;;7.10;4.82;;;;;;;19.42;55.05;99715.19;4906235;29;20032;-91
2023/05/20 09:16:55;;;;;;;6.78;4.93;;;;;;;19.27;56.95;99705.53;4891143;29;20039;-92
2023/05/20 09:19:22;;;;;;;8.63;5.55;;;;;;;19.27;58.80;99691.88;4890047;29;20502;-91
2023/05/20 09:21:50;;;;;;;9.85;4.93;;;;;;;19.21;59.22;99693.16;4907620;29;20032;-90
2023/05/20 09:24:47;;;;;;;9.25;5.25;;;;;;;19.13;59.60;99698.28;4920855;29;20032;-91
2023/05/20 09:27:14;;;;;;;9.43;5.60;;;;;;;18.91;60.82;99668.38;4906535;29;20048;-91
2023/05/20 09:29:40;;;;;;;7.82;4.50;;;;;;;18.74;59.81;99675.34;4891851;29;20055;-91
2023/05/20 09:32:06;;;;;;;5.97;4.20;;;;;;;18.63;60.21;99656.84;4891865;29;20402;-92
2023/05/20 09:34:31;;;;;;;10.05;5.28;;;;;;;18.40;62.33;99645.19;4894407;29;20032;-90
2023/05/20 09:36:58;;;;;;;6.60;4.40;;;;;;;18.49;60.95;99654.22;4907597;29;20031;-90
2023/05/20 09:39:24;;;;;;;6.80;4.20;;;;;;;18.60;63.01;99677.38;4897251;29;20034;-90
2023/05/20 09:42:15;;;;;;;8.65;5.47;;;;;;;18.76;64.10;99684.03;4940834;29;20108;-89
2023/05/20 09:44:43;;;;;;;8.13;4.93;;;;;;;18.98;62.75;99677.69;4931394;29;20118;-91
2023/05/20 09:47:10;;;;;;;8.98;5.63;;;;;;;19.04;62.25;99666.63;4908723;29;20027;-91
2023/05/20 09:49:37;;;;;;;8.30;5.03;;;;;;;19.22;62.36;99667.47;4924185;29;20042;-90
2023/05/20 09:52:03;;;;;;;8.32;5.50;;;;;;;19.33;61.81;99666.03;4924157;29;20031;-91
2023/05/20 09:54:29;;;;;;;10.45;5.88;;;;;;;19.49;62.30;99672.63;4908669;29;20118;-91
2023/05/20 09:56:56;;;;;;;9.32;5.68;;;;;;;19.64;62.88;99663.16;4923816;29;20523;-91
2023/05/20 09:59:22;;;;;;;9.27;5.32;;;;;;;19.66;62.79;99638.25;4955762;29;20101;-91
2023/05/20 10:01:48;;;;;;;8.20;5.55;;;;;;;19.76;60.99;99655.16;4956732;29;20035;-91
2023/05/20 10:04:15;;;;;;;9.02;5.43;;;;;;;20.12;59.85;99675.81;4923636;29;20051;-90
2023/05/20 10:07:17;;;;;;;8.88;5.43;;;;;;;20.13;59.52;99666.50;4907779;29;20101;-90
2023/05/20 10:10:07;;;;;;;10.68;5.20;;;;;;;20.39;58.00;99652.75;4910515;29;20042;-91
2023/05/20 10:12:58;;;;;;;7.53;5.70;;;;;;;20.75;59.38;99672.59;4926022;29;20034;-91
2023/05/20 10:16:01;;;;;;;8.07;5.40;;;;;;;20.83;55.86;99679.16;4937810;29;20557;-90
2023/05/20 10:18:49;;;;;;;6.07;5.10;;;;;;;21.03;54.96;99680.34;4939176;29;20039;-90
2023/05/20 10:21:15;;;;;;;6.90;4.97;;;;;;;20.89;55.94;99656.75;4939661;29;20042;-91
2023/05/20 10:23:41;;;;;;;6.13;4.75;;;;;;;20.92;54.45;99658.81;4939113;29;20086;-90
2023/05/20 10:26:08;;;;;;;8.45;4.90;;;;;;;20.74;55.42;99657.31;4939112;29;20538;-91
2023/05/20 10:28:35;;;;;;;9.05;5.60;;;;;;;21.22;56.19;99668.97;4939871;29;20055;-90
2023/05/20 10:31:02;;;;;;;7.30;4.63;;;;;;;21.44;55.42;99656.91;4923317;29;20033;-90
2023/05/20 10:33:29;;;;;;;7.13;4.75;;;;;;;21.61;55.95;99662.25;4938339;29;20231;-91
2023/05/20 10:36:01;;;;;;;14.18;5.32;;;;;;;21.85;53.85;99669.78;4922835;29;20138;-90
2023/05/20 10:38:28;;;;;;;8.75;4.70;;;;;;;21.93;55.25;99682.59;4908880;29;20133;-90
2023/05/20 10:40:56;;;;;;;8.38;4.53;;;;;;;22.07;52.23;99665.06;4923990;29;20171;-90
2023/05/20 10:43:28;;;;;;;11.00;4.45;;;;;;;21.97;51.90;99679.97;4908510;29;20065;-90
2023/05/20 10:45:56;;;;;;;8.18;5.22;;;;;;;21.79;53.86;99671.94;4938946;29;20035;-91
2023/05/20 10:48:30;;;;;;;6.88;5.35;;;;;;;21.68;53.66;99681.69;4924221;29;20035;-91
2023/05/20 10:51:05;;;;;;;14.00;5.18;;;;;;;21.49;54.09;99673.13;4956535;29;20050;-91
2023/05/20 10:53:47;;;;;;;8.23;5.43;;;;;;;21.37;54.68;99663.69;4924989;29;20047;-91
2023/05/20 10:56:22;;;;;;;8.90;5.28;;;;;;;21.39;55.90;99660.59;4957195;29;20031;-91
2023/05/20 10:58:50;;;;;;;7.40;4.80;;;;;;;21.55;53.58;99647.94;4940628;29;20059;-90
2023/05/20 11:01:17;;;;;;;6.00;4.55;;;;;;;21.61;52.42;99647.75;4926099;29;20477;-95
2023/05/20 11:03:45;;;;;;;8.52;4.65;;;;;;;21.76;52.80;99656.13;4942623;29;20027;-95
2023/05/20 11:06:16;;;;;;;6.15;4.45;;;;;;;21.88;51.39;99660.88;4929059;29;20027;-96
2023/05/20 11:08:44;;;;;;;5.80;4.60;;;;;;;21.67;50.19;99641.72;4928750;29;20035;-96
2023/05/20 11:11:15;;;;;;;6.22;4.00;;;;;;;21.39;50.20;99636.78;4942534;29;20046;-96
2023/05/20 11:13:42;;;;;;;7.57;4.00;;;;;;;21.29;49.32;99625.41;4928865;29;20062;-96
2023/05/20 11:16:10;;;;;;;6.28;3.85;;;;;;;21.34;50.48;99630.69;4942085;29;20035;-95
2023/05/20 11:18:38;;;;;;;5.93;4.07;;;;;;;21.51;49.83;99644.25;4911436;29;20043;-95
2023/05/20 11:21:04;;;;;;;5.32;4.30;;;;;;;21.28;51.30;99616.38;4912010;29;20037;-95
2023/05/20 11:23:29;;;;;;;5.65;4.10;;;;;;;21.13;49.81;99603.31;4909892;29;20035;-94
2023/05/20 11:25:56;;;;;;;6.45;4.28;;;;;;;21.23;50.30;99618.50;4924925;29;20082;-96
2023/05/20 11:28:25;;;;;;;6.95;4.30;;;;;;;21.18;49.06;99614.03;4928587;29;20138;-95
2023/05/20 11:30:52;;;;;;;7.72;4.35;;;;;;;21.26;48.64;99617.84;4929395;29;20552;-95